createdAt,value
2017-07-17T00:01:29.855Z,3.20
2017-07-17T00:03:56.659Z,4.20
2017-07-17T00:06:22.734Z,4.15
2017-07-17T00:08:48.815Z,3.10
2017-07-17T00:11:14.863Z,3.10
2017-07-17T00:13:40.914Z,4.45
2017-07-17T00:16:06.974Z,4.15
2017-07-17T00:18:33.039Z,3.40
2017-07-17T00:20:59.094Z,3.53
2017-07-17T00:23:25.141Z,3.15
2017-07-17T00:25:51.213Z,3.20
2017-07-17T00:28:17.261Z,4.85
2017-07-17T09:20:51.703Z,8.35
2017-07-17T09:23:17.759Z,8.35
2017-07-17T09:25:43.819Z,7.50
2017-07-17T09:28:09.879Z,9.30
2017-07-17T09:30:35.975Z,8.13
2017-07-17T09:33:02.066Z,7.95
2017-07-17T09:35:28.125Z,9.65
2017-07-17T09:37:54.282Z,9.73
2017-07-17T09:40:20.331Z,7.78
2017-07-17T09:43:01.342Z,9.13
2017-07-17T09:45:27.447Z,10.43
2017-07-17T09:47:53.499Z,8.10
2017-07-17T09:50:19.571Z,10.00
2017-07-17T09:52:45.631Z,8.80
2017-07-17T09:55:12.393Z,8.90
2017-07-17T09:57:38.644Z,9.90
2017-07-17T10:00:04.747Z,10.50
2017-07-17T10:02:30.803Z,8.53
2017-07-17T10:04:56.863Z,8.90
2017-07-17T10:07:23.938Z,9.60
2017-07-17T10:09:50.007Z,9.33
2017-07-17T10:12:16.079Z,10.00
2017-07-17T10:14:42.147Z,8.98
2017-07-17T10:17:08.211Z,9.18
2017-07-17T10:19:34.269Z,8.30
2017-07-17T10:22:00.322Z,8.80
2017-07-17T10:24:26.379Z,9.70
2017-07-17T10:26:52.466Z,7.67
2017-07-17T10:29:18.651Z,9.17
2017-07-17T10:31:44.718Z,9.45
2017-07-17T10:34:10.822Z,9.02
2017-07-17T10:36:36.871Z,9.65
2017-07-17T10:39:02.972Z,9.98
2017-07-17T10:41:29.031Z,7.60
2017-07-17T10:43:55.875Z,8.47
2017-07-17T10:46:22.680Z,9.18
2017-07-17T10:48:48.764Z,8.80
2017-07-17T10:51:15.020Z,8.97
2017-07-17T10:53:41.117Z,8.57
2017-07-17T10:56:07.902Z,9.17
2017-07-17T10:58:33.979Z,8.40
2017-07-17T11:01:00.027Z,7.97
2017-07-17T11:03:26.110Z,9.20
2017-07-17T11:05:52.184Z,7.90
2017-07-17T11:08:18.234Z,7.37
2017-07-17T11:10:44.342Z,8.85
2017-07-17T11:13:10.510Z,9.03
2017-07-17T11:15:36.554Z,8.50
2017-07-17T11:18:03.355Z,8.57
2017-07-17T11:20:29.398Z,8.70
2017-07-17T11:22:55.459Z,8.10
2017-07-17T11:25:21.526Z,7.77
2017-07-17T11:27:47.595Z,9.80
2017-07-17T11:30:13.630Z,7.90
2017-07-17T11:35:06.366Z,8.63
2017-07-17T11:37:32.451Z,9.33
2017-07-17T11:39:58.510Z,8.00
2017-07-17T11:42:24.584Z,8.47
2017-07-17T11:44:50.639Z,8.40
2017-07-17T11:59:50.379Z,9.50
2017-07-17T12:02:16.443Z,8.90
2017-07-17T12:04:43.242Z,8.63
2017-07-17T12:07:09.298Z,8.60
2017-07-17T12:09:35.370Z,7.47
2017-07-17T12:12:01.421Z,10.17
2017-07-17T12:14:27.547Z,8.17
2017-07-17T12:16:53.603Z,9.23
2017-07-17T12:19:19.882Z,9.00
2017-07-17T12:21:45.954Z,8.37
2017-07-17T12:24:12.062Z,10.47
2017-07-17T12:26:38.106Z,10.50
2017-07-17T12:29:04.210Z,10.53
2017-07-17T12:31:30.246Z,10.03
2017-07-17T12:33:56.281Z,10.60
2017-07-17T12:36:22.385Z,8.93
2017-07-17T12:38:48.438Z,8.77
2017-07-17T12:41:15.463Z,10.67
2017-07-17T12:43:41.506Z,9.23
2017-07-17T12:46:14.386Z,9.50
2017-07-17T12:48:40.430Z,8.67
2017-07-17T12:51:06.487Z,9.47
2017-07-17T12:53:47.536Z,8.57
2017-07-17T12:56:13.575Z,8.57
2017-07-17T12:58:39.626Z,8.53
2017-07-17T13:01:05.670Z,8.97
2017-07-17T13:03:31.731Z,7.97
2017-07-17T13:05:57.773Z,8.60
2017-07-17T13:08:24.553Z,8.73
2017-07-17T13:10:50.624Z,8.73
2017-07-17T13:13:17.198Z,8.63
2017-07-17T13:15:43.485Z,10.20
2017-07-17T13:18:09.539Z,8.70
2017-07-17T13:20:36.326Z,7.80
2017-07-17T13:23:02.383Z,8.90
2017-07-17T13:25:28.429Z,11.20
2017-07-17T13:27:54.536Z,8.70
2017-07-17T13:30:20.598Z,8.80
2017-07-17T13:32:46.722Z,9.00
2017-07-17T13:35:12.762Z,8.33
2017-07-17T13:37:38.909Z,6.90
2017-07-17T13:40:04.974Z,7.17
2017-07-17T13:42:31.027Z,7.30
2017-07-17T13:44:57.090Z,5.90
2017-07-17T13:47:23.206Z,6.90
2017-07-17T13:49:49.272Z,8.97
2017-07-17T13:52:15.333Z,7.23
2017-07-17T13:54:41.373Z,5.13
2017-07-17T13:57:07.465Z,5.33
2017-07-17T13:59:33.771Z,7.43
2017-07-17T14:01:59.811Z,5.87
2017-07-17T14:04:25.854Z,5.60
2017-07-17T14:06:51.909Z,6.60
2017-07-17T14:09:17.983Z,7.70
2017-07-17T14:11:44.026Z,8.93
2017-07-17T14:14:10.091Z,5.17
2017-07-17T14:16:36.182Z,6.93
2017-07-17T14:19:02.230Z,8.07
2017-07-17T14:21:28.618Z,8.33
2017-07-17T14:23:54.670Z,6.60
2017-07-17T14:26:21.472Z,5.20
2017-07-17T14:28:47.520Z,4.70
2017-07-17T14:31:13.590Z,6.40
2017-07-17T14:33:39.643Z,5.47
2017-07-17T14:36:05.687Z,4.77
2017-07-17T14:38:31.740Z,4.60
2017-07-17T14:40:58.551Z,3.93
2017-07-17T14:43:24.707Z,4.17
2017-07-17T14:45:50.766Z,5.30
2017-07-17T14:48:16.836Z,5.67
2017-07-17T14:50:42.878Z,6.10
2017-07-17T14:53:09.689Z,5.13
2017-07-17T14:55:35.731Z,5.80
2017-07-17T14:58:01.798Z,5.80
2017-07-17T15:00:27.841Z,5.50
2017-07-17T15:02:54.633Z,4.90
2017-07-17T15:05:20.746Z,5.50
2017-07-17T15:07:46.794Z,4.43
2017-07-17T15:10:12.837Z,5.90
2017-07-17T15:12:38.896Z,4.23
2017-07-17T15:15:04.946Z,4.80
2017-07-17T15:17:30.978Z,6.50
2017-07-17T15:19:57.029Z,5.00
2017-07-17T15:22:42.814Z,4.93
2017-07-17T15:25:08.871Z,5.40
2017-07-17T15:27:35.974Z,6.00
2017-07-17T15:30:02.014Z,4.60
2017-07-17T15:32:28.062Z,4.40
2017-07-17T15:34:54.114Z,5.07
2017-07-17T15:37:20.162Z,5.30
2017-07-17T15:39:46.242Z,4.93
2017-07-17T15:42:12.294Z,5.63
2017-07-17T15:44:38.359Z,4.23
2017-07-17T15:47:04.412Z,4.00
2017-07-17T15:49:30.708Z,3.43
2017-07-17T15:51:56.769Z,3.80
2017-07-17T15:54:22.835Z,4.33
2017-07-17T15:56:48.893Z,4.10
2017-07-17T15:59:14.954Z,4.20
2017-07-17T16:01:40.994Z,3.27
2017-07-17T16:04:07.034Z,3.97
2017-07-17T16:06:33.091Z,3.67
2017-07-17T16:08:59.150Z,4.10
2017-07-17T16:11:40.198Z,3.67
2017-07-17T16:14:06.242Z,3.93
2017-07-17T16:16:32.303Z,3.13
2017-07-17T16:18:59.102Z,3.97
2017-07-17T16:21:25.146Z,3.97
2017-07-17T16:23:51.201Z,3.73
2017-07-17T16:26:17.246Z,4.00
2017-07-17T16:28:43.292Z,3.90
2017-07-17T16:31:09.379Z,3.80
2017-07-17T16:33:35.761Z,4.13
2017-07-17T16:36:01.824Z,4.07
2017-07-17T16:38:27.879Z,3.70
2017-07-17T16:40:53.924Z,3.70
2017-07-17T16:43:19.980Z,3.90
2017-07-17T16:45:46.025Z,3.40
2017-07-17T16:48:12.074Z,3.23
2017-07-17T16:50:38.138Z,4.03
2017-07-17T16:53:04.198Z,3.20
2017-07-17T16:55:31.008Z,3.60
2017-07-17T16:57:57.094Z,3.40
2017-07-17T17:00:23.163Z,4.00
2017-07-17T17:02:49.247Z,5.30
2017-07-17T17:05:15.323Z,3.90
2017-07-17T17:07:56.334Z,3.90
2017-07-17T17:10:23.135Z,3.50
2017-07-17T17:12:49.188Z,3.90
2017-07-17T17:15:15.289Z,3.60
2017-07-17T17:17:42.133Z,3.87
2017-07-17T17:20:08.177Z,3.60
2017-07-17T17:22:34.215Z,3.30
2017-07-17T17:25:00.294Z,4.13
2017-07-17T17:27:26.349Z,3.43
2017-07-17T17:29:52.389Z,3.10
2017-07-17T17:32:18.463Z,3.87
2017-07-17T17:34:44.528Z,3.30
2017-07-17T17:37:10.573Z,3.30
2017-07-17T17:39:36.849Z,3.63
2017-07-17T17:42:02.892Z,3.50
2017-07-17T17:44:28.927Z,3.20
2017-07-17T17:46:54.969Z,3.70
2017-07-17T17:49:21.035Z,3.90
2017-07-17T17:51:47.105Z,4.50
2017-07-17T17:54:13.231Z,3.90
2017-07-17T17:56:39.290Z,3.80
2017-07-17T17:59:05.338Z,3.67
2017-07-17T18:01:32.136Z,4.00
2017-07-17T18:03:58.182Z,4.20
2017-07-17T18:06:24.260Z,4.07
2017-07-17T18:08:50.300Z,3.33
2017-07-17T18:11:16.337Z,3.33
2017-07-17T18:13:42.414Z,3.47
2017-07-17T18:16:08.462Z,3.20
2017-07-17T18:18:34.503Z,3.90
2017-07-17T18:21:00.547Z,3.93
2017-07-17T18:23:26.837Z,4.13
2017-07-17T18:25:52.919Z,3.50
2017-07-17T18:28:19.735Z,3.50
2017-07-17T18:30:45.786Z,3.20
2017-07-17T18:33:11.842Z,3.30
2017-07-17T18:35:37.893Z,3.33
2017-07-17T18:38:03.935Z,3.23
2017-07-17T18:40:29.986Z,3.00
2017-07-17T18:42:56.029Z,3.50
2017-07-17T18:45:23.035Z,3.53
2017-07-17T18:47:49.075Z,3.20
2017-07-17T18:50:15.122Z,3.77
2017-07-17T18:52:41.189Z,3.00
2017-07-17T18:55:07.238Z,3.30
2017-07-17T18:57:33.294Z,4.20
2017-07-17T18:59:59.345Z,3.20
2017-07-17T19:02:25.399Z,3.10
2017-07-17T19:04:51.466Z,3.20
2017-07-17T19:07:17.746Z,3.53
2017-07-17T19:09:43.792Z,3.20
2017-07-17T19:12:09.830Z,4.27
2017-07-17T19:14:35.896Z,4.07
2017-07-17T19:17:01.949Z,4.00
2017-07-17T19:19:28.030Z,3.73
2017-07-17T19:21:54.070Z,3.50
2017-07-17T19:24:20.859Z,4.43
2017-07-17T19:26:46.901Z,3.30
2017-07-17T19:29:12.997Z,4.27
2017-07-17T19:31:39.062Z,9.60
2017-07-17T19:34:05.128Z,13.23
2017-07-17T19:36:31.178Z,8.33
2017-07-17T19:38:57.227Z,6.53
2017-07-17T19:41:23.298Z,5.43
2017-07-17T19:43:50.097Z,5.67
2017-07-17T19:46:16.163Z,6.20
2017-07-17T19:48:42.234Z,6.10
2017-07-17T19:51:08.357Z,7.17
2017-07-17T19:53:34.415Z,6.70
2017-07-17T19:56:00.481Z,6.00
2017-07-17T19:58:26.542Z,5.60
2017-07-17T20:00:52.580Z,5.20
2017-07-17T20:03:18.637Z,5.00
2017-07-17T20:05:44.683Z,6.63
2017-07-17T20:08:10.747Z,7.35
2017-07-17T20:10:36.806Z,7.17
2017-07-17T20:13:02.910Z,5.57
2017-07-17T20:15:28.961Z,5.40
2017-07-17T20:17:55.007Z,5.90
2017-07-17T20:20:21.063Z,5.90
2017-07-17T20:22:47.130Z,6.00
2017-07-17T20:25:13.182Z,6.07
2017-07-17T20:27:39.229Z,5.70
2017-07-17T20:30:05.323Z,6.32
2017-07-17T20:32:31.363Z,6.70
2017-07-17T20:34:57.427Z,6.37
2017-07-17T20:37:23.478Z,5.18
2017-07-17T20:39:49.538Z,5.95
2017-07-17T20:42:15.594Z,5.43
2017-07-17T20:44:41.655Z,6.05
2017-07-17T20:47:07.709Z,5.83
2017-07-17T20:49:34.049Z,5.50
2017-07-17T20:52:00.838Z,5.72
2017-07-17T20:54:26.896Z,6.37
2017-07-17T20:56:53.212Z,6.63
2017-07-17T20:59:19.256Z,5.60
2017-07-17T21:01:45.303Z,6.03
2017-07-17T21:04:11.363Z,6.13
2017-07-17T21:06:37.407Z,6.82
2017-07-17T21:09:03.494Z,5.30
2017-07-17T21:11:29.550Z,6.72
2017-07-17T21:13:55.593Z,5.30
2017-07-17T21:16:21.655Z,6.60
2017-07-17T21:18:47.723Z,10.05
2017-07-17T21:21:13.767Z,10.00
2017-07-17T21:23:39.826Z,7.25
2017-07-17T21:26:05.875Z,7.67
2017-07-17T21:28:31.923Z,6.70
2017-07-17T21:30:57.969Z,7.73
2017-07-17T21:33:24.026Z,7.20
2017-07-17T21:36:05.075Z,7.10
2017-07-17T21:38:31.149Z,7.22
2017-07-17T21:41:12.188Z,7.17
2017-07-17T21:43:38.274Z,8.15
2017-07-17T21:46:04.341Z,7.20
2017-07-17T21:48:30.416Z,7.70
2017-07-17T21:50:56.470Z,6.33
2017-07-17T21:53:22.538Z,6.50
2017-07-17T21:55:48.622Z,7.10
2017-07-17T21:58:14.757Z,6.28
2017-07-17T22:00:40.811Z,6.37
2017-07-17T22:03:06.854Z,7.28
2017-07-17T22:05:32.905Z,7.28
2017-07-17T22:07:58.975Z,8.23
2017-07-17T22:10:25.014Z,7.60
2017-07-17T22:12:51.091Z,6.53
2017-07-17T22:15:17.143Z,6.60
2017-07-17T22:17:43.211Z,6.20
2017-07-17T22:20:09.295Z,6.68
2017-07-17T22:22:35.382Z,7.87
2017-07-17T22:25:01.451Z,8.02
2017-07-17T22:27:27.506Z,8.35
2017-07-17T22:29:53.601Z,8.65
2017-07-17T22:32:19.651Z,7.75
2017-07-17T22:34:45.718Z,7.10
2017-07-17T22:37:11.794Z,8.88
2017-07-17T22:39:37.843Z,8.70
2017-07-17T22:42:04.131Z,7.82
2017-07-17T22:44:30.179Z,9.10
2017-07-17T22:46:56.994Z,8.85
2017-07-17T22:49:23.038Z,8.20
2017-07-17T22:51:49.096Z,8.65
2017-07-17T22:54:15.163Z,9.27
2017-07-17T22:56:41.235Z,8.85
2017-07-17T22:59:07.278Z,8.50
2017-07-17T23:01:34.066Z,8.88
2017-07-17T23:04:00.185Z,9.25
2017-07-17T23:06:26.242Z,8.63
2017-07-17T23:08:53.079Z,6.60
2017-07-17T23:11:19.160Z,8.50
2017-07-17T23:13:45.218Z,9.20
2017-07-17T23:16:11.266Z,8.50
2017-07-17T23:18:37.316Z,8.80
2017-07-17T23:21:03.382Z,9.82
2017-07-17T23:23:29.426Z,9.32
2017-07-17T23:25:55.650Z,7.32
2017-07-17T23:28:21.710Z,9.77
2017-07-17T23:30:47.777Z,6.80
2017-07-17T23:33:13.834Z,8.65
2017-07-17T23:35:39.893Z,9.40
2017-07-17T23:38:05.947Z,8.30
2017-07-17T23:40:32.002Z,8.38
2017-07-17T23:42:58.093Z,8.43
2017-07-17T23:45:24.144Z,9.60
2017-07-17T23:47:50.479Z,8.30
2017-07-17T23:50:16.532Z,9.02
2017-07-17T23:52:42.582Z,8.98
2017-07-17T23:55:08.666Z,7.55
2017-07-17T23:57:34.722Z,8.93
